sensor_id;sensor_type;location;lat;lon;timestamp;P1;durP1;ratioP1;P2;durP2;ratioP2
56746;SDS011;42623;49.978;9.966;2023-04-01T00:00:01;10.88;;;6.25;;
56746;SDS011;42623;49.978;9.966;2023-04-01T00:00:11;10.27;;;5.83;;
56746;SDS011;42623;49.978;9.966;2023-04-01T00:00:22;17.42;;;12.50;;
56746;SDS011;42623;49.978;9.966;2023-04-01T00:00:32;39.80;;;35.77;;
56746;SDS011;42623;49.978;9.966;2023-04-01T00:00:44;43.55;;;39.13;;
56746;SDS011;42623;49.978;9.966;2023-04-01T00:00:54;58.33;;;52.78;;
56746;SDS011;42623;49.978;9.966;2023-04-01T00:01:06;42.65;;;38.42;;
56746;SDS011;42623;49.978;9.966;2023-04-01T00:01:16;40.90;;;36.88;;
56746;SDS011;42623;49.978;9.966;2023-04-01T00:01:27;25.25;;;22.67;;
56746;SDS011;42623;49.978;9.966;2023-04-01T00:01:37;18.90;;;16.60;;
56746;SDS011;42623;49.978;9.966;2023-04-01T00:01:47;9.77;;;7.67;;
56746;SDS011;42623;49.978;9.966;2023-04-01T00:01:57;5.87;;;2.43;;
56746;SDS011;42623;49.978;9.966;2023-04-01T00:02:08;3.60;;;1.53;;
56746;SDS011;42623;49.978;9.966;2023-04-01T00:02:18;3.07;;;1.50;;
56746;SDS011;42623;49.978;9.966;2023-04-01T00:02:28;4.38;;;1.48;;
56746;SDS011;42623;49.978;9.966;2023-04-01T00:02:38;5.43;;;2.23;;
56746;SDS011;42623;49.978;9.966;2023-04-01T00:02:48;7.00;;;2.60;;
56746;SDS011;42623;49.978;9.966;2023-04-01T00:02:59;4.50;;;2.20;;
56746;SDS011;42623;49.978;9.966;2023-04-01T00:03:10;3.30;;;1.58;;
56746;SDS011;42623;49.978;9.966;2023-04-01T00:03:22;3.40;;;1.85;;
56746;SDS011;42623;49.978;9.966;2023-04-01T00:03:32;4.20;;;2.22;;
56746;SDS011;42623;49.978;9.966;2023-04-01T00:03:43;6.25;;;2.47;;
56746;SDS011;42623;49.978;9.966;2023-04-01T00:03:53;5.53;;;2.00;;
56746;SDS011;42623;49.978;9.966;2023-04-01T00:04:04;7.45;;;2.88;;
56746;SDS011;42623;49.978;9.966;2023-04-01T00:04:14;6.73;;;3.40;;
56746;SDS011;42623;49.978;9.966;2023-04-01T00:04:25;6.50;;;3.22;;
56746;SDS011;42623;49.978;9.966;2023-04-01T00:04:35;5.10;;;2.53;;
56746;SDS011;42623;49.978;9.966;2023-04-01T00:04:46;4.07;;;2.03;;
56746;SDS011;42623;49.978;9.966;2023-04-01T00:04:56;3.83;;;1.93;;
56746;SDS011;42623;49.978;9.966;2023-04-01T00:05:06;2.87;;;1.43;;
56746;SDS011;42623;49.978;9.966;2023-04-01T00:05:16;2.45;;;1.42;;
56746;SDS011;42623;49.978;9.966;2023-04-01T00:05:27;5.10;;;3.30;;
56746;SDS011;42623;49.978;9.966;2023-04-01T00:05:37;7.87;;;5.43;;
56746;SDS011;42623;49.978;9.966;2023-04-01T00:05:47;9.70;;;6.80;;
56746;SDS011;42623;49.978;9.966;2023-04-01T00:05:58;8.17;;;5.70;;
56746;SDS011;42623;49.978;9.966;2023-04-01T00:06:09;7.25;;;4.75;;
56746;SDS011;42623;49.978;9.966;2023-04-01T00:06:20;9.80;;;6.63;;
56746;SDS011;42623;49.978;9.966;2023-04-01T00:06:30;10.10;;;6.63;;
56746;SDS011;42623;49.978;9.966;2023-04-01T00:06:40;12.43;;;8.55;;
56746;SDS011;42623;49.978;9.966;2023-04-01T00:06:50;11.17;;;7.63;;
56746;SDS011;42623;49.978;9.966;2023-04-01T00:07:01;10.32;;;7.22;;
56746;SDS011;42623;49.978;9.966;2023-04-01T00:07:12;9.03;;;6.13;;
56746;SDS011;42623;49.978;9.966;2023-04-01T00:07:22;7.70;;;4.88;;
56746;SDS011;42623;49.978;9.966;2023-04-01T00:07:32;10.07;;;5.53;;
56746;SDS011;42623;49.978;9.966;2023-04-01T00:07:43;10.45;;;5.63;;
56746;SDS011;42623;49.978;9.966;2023-04-01T00:07:53;9.77;;;6.00;;
56746;SDS011;42623;49.978;9.966;2023-04-01T00:08:03;7.50;;;5.03;;
56746;SDS011;42623;49.978;9.966;2023-04-01T00:08:13;7.00;;;4.40;;
56746;SDS011;42623;49.978;9.966;2023-04-01T00:08:24;6.05;;;3.28;;
56746;SDS011;42623;49.978;9.966;2023-04-01T00:08:35;4.97;;;2.53;;
56746;SDS011;42623;49.978;9.966;2023-04-01T00:08:45;3.87;;;2.03;;
56746;SDS011;42623;49.978;9.966;2023-04-01T00:08:56;4.95;;;2.90;;
56746;SDS011;42623;49.978;9.966;2023-04-01T00:09:06;5.70;;;2.83;;
56746;SDS011;42623;49.978;9.966;2023-04-01T00:09:16;5.30;;;2.50;;
56746;SDS011;42623;49.978;9.966;2023-04-01T00:09:26;5.33;;;2.07;;
56746;SDS011;42623;49.978;9.966;2023-04-01T00:09:36;5.63;;;2.47;;
56746;SDS011;42623;49.978;9.966;2023-04-01T00:09:47;8.03;;;2.93;;
56746;SDS011;42623;49.978;9.966;2023-04-01T00:09:57;9.27;;;2.35;;
56746;SDS011;42623;49.978;9.966;2023-04-01T00:10:08;7.87;;;1.70;;
56746;SDS011;42623;49.978;9.966;2023-04-01T00:10:18;5.20;;;1.55;;
56746;SDS011;42623;49.978;9.966;2023-04-01T00:10:28;3.63;;;1.80;;
56746;SDS011;42623;49.978;9.966;2023-04-01T00:10:38;4.33;;;1.80;;
56746;SDS011;42623;49.978;9.966;2023-04-01T00:10:49;4.53;;;1.90;;
56746;SDS011;42623;49.978;9.966;2023-04-01T00:10:59;4.97;;;2.33;;
56746;SDS011;42623;49.978;9.966;2023-04-01T00:11:10;5.93;;;4.37;;
56746;SDS011;42623;49.978;9.966;2023-04-01T00:11:20;6.70;;;4.80;;
56746;SDS011;42623;49.978;9.966;2023-04-01T00:11:30;6.40;;;4.47;;
56746;SDS011;42623;49.978;9.966;2023-04-01T00:11:41;6.03;;;3.30;;
56746;SDS011;42623;49.978;9.966;2023-04-01T00:11:51;6.27;;;3.80;;
56746;SDS011;42623;49.978;9.966;2023-04-01T00:12:01;7.63;;;4.37;;
56746;SDS011;42623;49.978;9.966;2023-04-01T00:12:11;8.30;;;5.30;;
56746;SDS011;42623;49.978;9.966;2023-04-01T00:12:21;9.17;;;5.87;;
56746;SDS011;42623;49.978;9.966;2023-04-01T00:12:31;8.40;;;6.00;;
56746;SDS011;42623;49.978;9.966;2023-04-01T00:12:42;6.87;;;4.03;;
56746;SDS011;42623;49.978;9.966;2023-04-01T00:12:52;4.73;;;2.60;;
56746;SDS011;42623;49.978;9.966;2023-04-01T00:13:03;3.67;;;1.90;;
56746;SDS011;42623;49.978;9.966;2023-04-01T00:13:13;6.37;;;5.77;;
56746;SDS011;42623;49.978;9.966;2023-04-01T00:13:24;9.98;;;9.05;;
56746;SDS011;42623;49.978;9.966;2023-04-01T00:13:35;13.18;;;11.98;;
56746;SDS011;42623;49.978;9.966;2023-04-01T00:13:45;7.90;;;7.10;;
56746;SDS011;42623;49.978;9.966;2023-04-01T00:13:56;6.90;;;5.43;;
56746;SDS011;42623;49.978;9.966;2023-04-01T00:14:06;6.57;;;4.20;;
56746;SDS011;42623;49.978;9.966;2023-04-01T00:14:17;7.60;;;5.40;;
56746;SDS011;42623;49.978;9.966;2023-04-01T00:14:27;7.22;;;5.63;;
56746;SDS011;42623;49.978;9.966;2023-04-01T00:14:37;6.80;;;5.43;;
56746;SDS011;42623;49.978;9.966;2023-04-01T00:14:47;7.13;;;6.03;;
56746;SDS011;42623;49.978;9.966;2023-04-01T00:14:57;9.60;;;7.70;;
56746;SDS011;42623;49.978;9.966;2023-04-01T00:15:08;10.15;;;7.63;;
56746;SDS011;42623;49.978;9.966;2023-04-01T00:15:19;10.52;;;6.00;;
56746;SDS011;42623;49.978;9.966;2023-04-01T00:15:29;7.00;;;3.60;;
56746;SDS011;42623;49.978;9.966;2023-04-01T00:15:40;7.72;;;4.88;;
56746;SDS011;42623;49.978;9.966;2023-04-01T00:15:50;6.90;;;5.07;;
56746;SDS011;42623;49.978;9.966;2023-04-01T00:16:00;9.23;;;6.63;;
56746;SDS011;42623;49.978;9.966;2023-04-01T00:16:11;9.88;;;8.07;;
56746;SDS011;42623;49.978;9.966;2023-04-01T00:16:21;10.32;;;8.75;;
56746;SDS011;42623;49.978;9.966;2023-04-01T00:16:31;7.97;;;7.03;;
56746;SDS011;42623;49.978;9.966;2023-04-01T00:16:42;5.03;;;2.97;;
56746;SDS011;42623;49.978;9.966;2023-04-01T00:16:52;4.73;;;2.00;;
56746;SDS011;42623;49.978;9.966;2023-04-01T00:17:02;4.10;;;1.50;;
56746;SDS011;42623;49.978;9.966;2023-04-01T00:17:12;3.60;;;1.27;;
56746;SDS011;42623;49.978;9.966;2023-04-01T00:17:23;2.77;;;1.47;;
56746;SDS011;42623;49.978;9.966;2023-04-01T00:17:33;3.93;;;2.73;;
56746;SDS011;42623;49.978;9.966;2023-04-01T00:17:43;6.30;;;5.07;;
56746;SDS011;42623;49.978;9.966;2023-04-01T00:17:54;7.60;;;6.15;;
56746;SDS011;42623;49.978;9.966;2023-04-01T00:18:04;6.63;;;5.40;;
56746;SDS011;42623;49.978;9.966;2023-04-01T00:18:15;6.53;;;5.50;;
56746;SDS011;42623;49.978;9.966;2023-04-01T00:18:26;6.83;;;5.77;;
56746;SDS011;42623;49.978;9.966;2023-04-01T00:18:36;7.60;;;5.93;;
56746;SDS011;42623;49.978;9.966;2023-04-01T00:18:46;7.73;;;5.77;;
56746;SDS011;42623;49.978;9.966;2023-04-01T00:18:57;7.28;;;4.78;;
56746;SDS011;42623;49.978;9.966;2023-04-01T00:19:07;5.93;;;3.60;;
56746;SDS011;42623;49.978;9.966;2023-04-01T00:19:17;4.83;;;2.60;;
56746;SDS011;42623;49.978;9.966;2023-04-01T00:19:27;4.18;;;2.20;;
56746;SDS011;42623;49.978;9.966;2023-04-01T00:19:38;3.67;;;1.93;;
56746;SDS011;42623;49.978;9.966;2023-04-01T00:19:48;3.27;;;1.73;;
56746;SDS011;42623;49.978;9.966;2023-04-01T00:19:58;6.00;;;4.20;;
56746;SDS011;42623;49.978;9.966;2023-04-01T00:20:08;7.20;;;5.10;;
56746;SDS011;42623;49.978;9.966;2023-04-01T00:20:19;6.40;;;4.75;;
56746;SDS011;42623;49.978;9.966;2023-04-01T00:20:29;3.13;;;1.85;;
56746;SDS011;42623;49.978;9.966;2023-04-01T00:20:43;3.03;;;1.40;;
56746;SDS011;42623;49.978;9.966;2023-04-01T00:20:53;2.95;;;1.30;;
56746;SDS011;42623;49.978;9.966;2023-04-01T00:21:04;3.30;;;1.77;;
56746;SDS011;42623;49.978;9.966;2023-04-01T00:21:14;4.20;;;2.73;;
56746;SDS011;42623;49.978;9.966;2023-04-01T00:21:25;4.80;;;3.00;;
56746;SDS011;42623;49.978;9.966;2023-04-01T00:21:35;4.63;;;2.85;;
56746;SDS011;42623;49.978;9.966;2023-04-01T00:21:46;5.57;;;2.90;;
56746;SDS011;42623;49.978;9.966;2023-04-01T00:21:58;6.70;;;3.55;;
56746;SDS011;42623;49.978;9.966;2023-04-01T00:22:08;6.10;;;2.88;;
56746;SDS011;42623;49.978;9.966;2023-04-01T00:22:21;4.57;;;1.73;;
56746;SDS011;42623;49.978;9.966;2023-04-01T00:22:32;5.53;;;1.50;;
56746;SDS011;42623;49.978;9.966;2023-04-01T00:22:42;6.50;;;2.10;;
56746;SDS011;42623;49.978;9.966;2023-04-01T00:22:52;6.37;;;2.10;;
56746;SDS011;42623;49.978;9.966;2023-04-01T00:23:02;4.95;;;2.30;;
56746;SDS011;42623;49.978;9.966;2023-04-01T00:23:13;3.43;;;1.80;;
56746;SDS011;42623;49.978;9.966;2023-04-01T00:23:23;3.50;;;1.70;;
56746;SDS011;42623;49.978;9.966;2023-04-01T00:23:34;3.17;;;1.30;;
56746;SDS011;42623;49.978;9.966;2023-04-01T00:23:45;4.03;;;1.88;;
56746;SDS011;42623;49.978;9.966;2023-04-01T00:23:55;4.80;;;2.33;;
56746;SDS011;42623;49.978;9.966;2023-04-01T00:24:05;5.15;;;2.45;;
56746;SDS011;42623;49.978;9.966;2023-04-01T00:24:16;4.20;;;1.90;;
56746;SDS011;42623;49.978;9.966;2023-04-01T00:24:27;3.63;;;1.73;;
56746;SDS011;42623;49.978;9.966;2023-04-01T00:24:37;2.97;;;1.65;;
56746;SDS011;42623;49.978;9.966;2023-04-01T00:24:48;3.80;;;1.70;;
56746;SDS011;42623;49.978;9.966;2023-04-01T00:24:58;3.90;;;1.40;;
56746;SDS011;42623;49.978;9.966;2023-04-01T00:25:08;4.40;;;1.50;;
56746;SDS011;42623;49.978;9.966;2023-04-01T00:25:18;3.63;;;1.43;;
56746;SDS011;42623;49.978;9.966;2023-04-01T00:25:29;3.90;;;1.90;;
56746;SDS011;42623;49.978;9.966;2023-04-01T00:25:39;4.45;;;2.47;;
56746;SDS011;42623;49.978;9.966;2023-04-01T00:25:49;4.40;;;2.40;;
56746;SDS011;42623;49.978;9.966;2023-04-01T00:26:00;4.23;;;2.13;;
56746;SDS011;42623;49.978;9.966;2023-04-01T00:26:10;3.33;;;1.48;;
56746;SDS011;42623;49.978;9.966;2023-04-01T00:26:22;2.72;;;1.30;;
56746;SDS011;42623;49.978;9.966;2023-04-01T00:26:32;2.63;;;1.20;;
56746;SDS011;42623;49.978;9.966;2023-04-01T00:26:42;2.73;;;1.27;;
56746;SDS011;42623;49.978;9.966;2023-04-01T00:26:54;3.03;;;1.27;;
56746;SDS011;42623;49.978;9.966;2023-04-01T00:27:04;2.50;;;1.20;;
56746;SDS011;42623;49.978;9.966;2023-04-01T00:27:15;1.75;;;0.98;;
56746;SDS011;42623;49.978;9.966;2023-04-01T00:27:25;1.43;;;0.93;;
56746;SDS011;42623;49.978;9.966;2023-04-01T00:27:36;1.33;;;0.90;;
56746;SDS011;42623;49.978;9.966;2023-04-01T00:27:46;2.50;;;1.07;;
56746;SDS011;42623;49.978;9.966;2023-04-01T00:27:56;3.33;;;1.45;;
56746;SDS011;42623;49.978;9.966;2023-04-01T00:28:06;3.83;;;1.77;;
56746;SDS011;42623;49.978;9.966;2023-04-01T00:28:17;4.67;;;2.57;;
56746;SDS011;42623;49.978;9.966;2023-04-01T00:28:28;5.43;;;2.65;;
56746;SDS011;42623;49.978;9.966;2023-04-01T00:28:38;7.30;;;2.92;;
56746;SDS011;42623;49.978;9.966;2023-04-01T00:28:48;6.53;;;2.60;;
56746;SDS011;42623;49.978;9.966;2023-04-01T00:28:59;7.22;;;3.17;;
56746;SDS011;42623;49.978;9.966;2023-04-01T00:29:10;7.38;;;3.17;;
56746;SDS011;42623;49.978;9.966;2023-04-01T00:29:20;7.23;;;2.90;;
56746;SDS011;42623;49.978;9.966;2023-04-01T00:29:30;6.90;;;3.03;;
56746;SDS011;42623;49.978;9.966;2023-04-01T00:29:42;5.50;;;2.95;;
56746;SDS011;42623;49.978;9.966;2023-04-01T00:29:52;4.60;;;2.65;;
56746;SDS011;42623;49.978;9.966;2023-04-01T00:30:02;4.77;;;2.10;;
56746;SDS011;42623;49.978;9.966;2023-04-01T00:30:12;4.50;;;1.93;;
56746;SDS011;42623;49.978;9.966;2023-04-01T00:30:23;5.38;;;1.95;;
56746;SDS011;42623;49.978;9.966;2023-04-01T00:30:33;5.33;;;2.00;;
56746;SDS011;42623;49.978;9.966;2023-04-01T00:30:43;5.37;;;2.00;;
56746;SDS011;42623;49.978;9.966;2023-04-01T00:30:53;4.80;;;1.80;;
56746;SDS011;42623;49.978;9.966;2023-04-01T00:31:04;3.83;;;1.55;;
56746;SDS011;42623;49.978;9.966;2023-04-01T00:31:15;5.13;;;2.45;;
56746;SDS011;42623;49.978;9.966;2023-04-01T00:31:25;4.33;;;2.67;;
56746;SDS011;42623;49.978;9.966;2023-04-01T00:31:36;4.35;;;2.70;;
56746;SDS011;42623;49.978;9.966;2023-04-01T00:31:46;2.67;;;1.57;;
56746;SDS011;42623;49.978;9.966;2023-04-01T00:31:56;3.40;;;2.07;;
56746;SDS011;42623;49.978;9.966;2023-04-01T00:32:07;6.07;;;2.75;;
56746;SDS011;42623;49.978;9.966;2023-04-01T00:32:17;6.93;;;3.27;;
56746;SDS011;42623;49.978;9.966;2023-04-01T00:32:27;7.00;;;3.35;;
56746;SDS011;42623;49.978;9.966;2023-04-01T00:32:37;6.00;;;3.27;;
56746;SDS011;42623;49.978;9.966;2023-04-01T00:32:50;5.63;;;2.67;;
56746;SDS011;42623;49.978;9.966;2023-04-01T00:33:01;5.22;;;2.03;;
56746;SDS011;42623;49.978;9.966;2023-04-01T00:33:11;4.70;;;1.85;;
56746;SDS011;42623;49.978;9.966;2023-04-01T00:33:21;6.00;;;2.53;;
56746;SDS011;42623;49.978;9.966;2023-04-01T00:33:31;7.17;;;3.30;;
56746;SDS011;42623;49.978;9.966;2023-04-01T00:33:42;6.10;;;3.13;;
56746;SDS011;42623;49.978;9.966;2023-04-01T00:33:52;5.03;;;2.30;;
56746;SDS011;42623;49.978;9.966;2023-04-01T00:34:02;5.43;;;2.60;;
56746;SDS011;42623;49.978;9.966;2023-04-01T00:34:12;7.00;;;4.63;;
56746;SDS011;42623;49.978;9.966;2023-04-01T00:34:23;7.82;;;5.85;;
56746;SDS011;42623;49.978;9.966;2023-04-01T00:34:33;6.82;;;4.90;;
56746;SDS011;42623;49.978;9.966;2023-04-01T00:34:43;5.80;;;3.13;;
56746;SDS011;42623;49.978;9.966;2023-04-01T00:34:54;5.80;;;3.03;;
56746;SDS011;42623;49.978;9.966;2023-04-01T00:35:04;6.05;;;3.67;;
56746;SDS011;42623;49.978;9.966;2023-04-01T00:35:15;5.73;;;3.40;;
56746;SDS011;42623;49.978;9.966;2023-04-01T00:35:25;4.38;;;2.30;;
56746;SDS011;42623;49.978;9.966;2023-04-01T00:35:35;4.57;;;2.07;;
56746;SDS011;42623;49.978;9.966;2023-04-01T00:35:45;4.70;;;2.40;;
56746;SDS011;42623;49.978;9.966;2023-04-01T00:35:56;5.20;;;3.07;;
56746;SDS011;42623;49.978;9.966;2023-04-01T00:36:15;5.82;;;3.05;;
56746;SDS011;42623;49.978;9.966;2023-04-01T00:36:26;5.28;;;2.63;;
56746;SDS011;42623;49.978;9.966;2023-04-01T00:36:36;4.30;;;2.33;;
56746;SDS011;42623;49.978;9.966;2023-04-01T00:36:46;3.03;;;1.77;;
56746;SDS011;42623;49.978;9.966;2023-04-01T00:36:56;5.30;;;1.53;;
56746;SDS011;42623;49.978;9.966;2023-04-01T00:37:07;6.35;;;2.35;;
56746;SDS011;42623;49.978;9.966;2023-04-01T00:37:18;7.30;;;2.70;;
56746;SDS011;42623;49.978;9.966;2023-04-01T00:37:28;5.30;;;2.80;;
56746;SDS011;42623;49.978;9.966;2023-04-01T00:37:38;4.30;;;2.13;;
56746;SDS011;42623;49.978;9.966;2023-04-01T00:37:51;3.78;;;2.05;;
56746;SDS011;42623;49.978;9.966;2023-04-01T00:38:01;3.20;;;1.70;;
56746;SDS011;42623;49.978;9.966;2023-04-01T00:38:12;2.92;;;1.45;;
56746;SDS011;42623;49.978;9.966;2023-04-01T00:38:23;3.87;;;2.27;;
56746;SDS011;42623;49.978;9.966;2023-04-01T00:38:33;3.83;;;2.33;;
56746;SDS011;42623;49.978;9.966;2023-04-01T00:38:43;4.27;;;2.57;;
56746;SDS011;42623;49.978;9.966;2023-04-01T00:38:53;4.25;;;1.98;;
56746;SDS011;42623;49.978;9.966;2023-04-01T00:39:04;4.50;;;1.93;;
56746;SDS011;42623;49.978;9.966;2023-04-01T00:39:14;4.95;;;1.92;;
56746;SDS011;42623;49.978;9.966;2023-04-01T00:39:24;5.03;;;2.33;;
56746;SDS011;42623;49.978;9.966;2023-04-01T00:39:35;5.33;;;2.77;;
56746;SDS011;42623;49.978;9.966;2023-04-01T00:39:46;5.03;;;2.85;;
56746;SDS011;42623;49.978;9.966;2023-04-01T00:39:56;4.38;;;2.10;;
56746;SDS011;42623;49.978;9.966;2023-04-01T00:40:07;4.03;;;1.97;;
56746;SDS011;42623;49.978;9.966;2023-04-01T00:40:22;3.85;;;1.77;;
56746;SDS011;42623;49.978;9.966;2023-04-01T00:40:34;3.10;;;1.60;;
56746;SDS011;42623;49.978;9.966;2023-04-01T00:40:46;3.40;;;1.67;;
56746;SDS011;42623;49.978;9.966;2023-04-01T00:40:57;3.42;;;1.60;;
56746;SDS011;42623;49.978;9.966;2023-04-01T00:41:08;2.70;;;1.38;;
56746;SDS011;42623;49.978;9.966;2023-04-01T00:41:20;3.35;;;1.48;;
56746;SDS011;42623;49.978;9.966;2023-04-01T00:41:31;3.80;;;1.77;;
56746;SDS011;42623;49.978;9.966;2023-04-01T00:41:41;3.70;;;2.00;;
56746;SDS011;42623;49.978;9.966;2023-04-01T00:41:51;3.23;;;1.93;;
56746;SDS011;42623;49.978;9.966;2023-04-01T00:42:02;3.00;;;1.83;;
56746;SDS011;42623;49.978;9.966;2023-04-01T00:42:12;2.80;;;1.70;;
56746;SDS011;42623;49.978;9.966;2023-04-01T00:42:23;2.65;;;1.58;;
56746;SDS011;42623;49.978;9.966;2023-04-01T00:42:33;2.43;;;1.27;;
56746;SDS011;42623;49.978;9.966;2023-04-01T00:42:44;3.13;;;1.60;;
56746;SDS011;42623;49.978;9.966;2023-04-01T00:42:54;2.90;;;1.50;;
56746;SDS011;42623;49.978;9.966;2023-04-01T00:43:09;2.90;;;1.43;;
56746;SDS011;42623;49.978;9.966;2023-04-01T00:43:20;4.05;;;1.60;;
56746;SDS011;42623;49.978;9.966;2023-04-01T00:43:30;4.23;;;1.70;;
56746;SDS011;42623;49.978;9.966;2023-04-01T00:43:42;4.32;;;1.70;;
56746;SDS011;42623;49.978;9.966;2023-04-01T00:43:52;3.00;;;1.70;;
56746;SDS011;42623;49.978;9.966;2023-04-01T00:44:15;3.53;;;2.07;;
56746;SDS011;42623;49.978;9.966;2023-04-01T00:44:27;7.85;;;3.35;;
56746;SDS011;42623;49.978;9.966;2023-04-01T00:44:38;5.47;;;2.90;;
56746;SDS011;42623;49.978;9.966;2023-04-01T00:44:50;5.82;;;2.40;;
56746;SDS011;42623;49.978;9.966;2023-04-01T00:45:21;6.03;;;1.98;;
56746;SDS011;42623;49.978;9.966;2023-04-01T00:45:44;3.88;;;1.48;;
56746;SDS011;42623;49.978;9.966;2023-04-01T00:45:54;2.70;;;1.10;;
56746;SDS011;42623;49.978;9.966;2023-04-01T00:46:05;3.13;;;1.30;;
56746;SDS011;42623;49.978;9.966;2023-04-01T00:46:15;2.43;;;1.40;;
56746;SDS011;42623;49.978;9.966;2023-04-01T00:46:25;2.90;;;1.70;;
56746;SDS011;42623;49.978;9.966;2023-04-01T00:46:35;2.47;;;1.53;;
56746;SDS011;42623;49.978;9.966;2023-04-01T00:46:46;2.40;;;1.33;;
56746;SDS011;42623;49.978;9.966;2023-04-01T00:46:57;1.97;;;1.00;;
56746;SDS011;42623;49.978;9.966;2023-04-01T00:47:07;2.60;;;1.00;;
56746;SDS011;42623;49.978;9.966;2023-04-01T00:47:17;2.55;;;1.10;;
56746;SDS011;42623;49.978;9.966;2023-04-01T00:47:27;2.43;;;1.13;;
56746;SDS011;42623;49.978;9.966;2023-04-01T00:47:38;2.33;;;1.30;;
56746;SDS011;42623;49.978;9.966;2023-04-01T00:47:48;1.95;;;1.10;;
56746;SDS011;42623;49.978;9.966;2023-04-01T00:47:59;2.50;;;1.43;;
56746;SDS011;42623;49.978;9.966;2023-04-01T00:48:14;3.42;;;2.15;;
56746;SDS011;42623;49.978;9.966;2023-04-01T00:48:36;5.47;;;2.92;;
56746;SDS011;42623;49.978;9.966;2023-04-01T00:48:51;5.97;;;2.97;;
56746;SDS011;42623;49.978;9.966;2023-04-01T00:49:02;5.45;;;2.60;;
56746;SDS011;42623;49.978;9.966;2023-04-01T00:49:12;4.57;;;2.13;;
56746;SDS011;42623;49.978;9.966;2023-04-01T00:49:23;3.05;;;1.70;;
56746;SDS011;42623;49.978;9.966;2023-04-01T00:49:39;2.92;;;1.40;;
56746;SDS011;42623;49.978;9.966;2023-04-01T00:49:50;3.40;;;1.63;;
56746;SDS011;42623;49.978;9.966;2023-04-01T00:50:01;3.97;;;2.08;;
56746;SDS011;42623;49.978;9.966;2023-04-01T00:50:11;4.80;;;2.60;;
56746;SDS011;42623;49.978;9.966;2023-04-01T00:50:22;5.53;;;3.00;;
56746;SDS011;42623;49.978;9.966;2023-04-01T00:50:34;8.02;;;2.75;;
56746;SDS011;42623;49.978;9.966;2023-04-01T00:50:47;7.50;;;2.10;;
56746;SDS011;42623;49.978;9.966;2023-04-01T00:50:58;7.07;;;2.42;;
56746;SDS011;42623;49.978;9.966;2023-04-01T00:51:14;4.13;;;2.28;;
56746;SDS011;42623;49.978;9.966;2023-04-01T00:51:27;2.88;;;1.27;;
56746;SDS011;42623;49.978;9.966;2023-04-01T00:51:37;2.22;;;1.02;;
56746;SDS011;42623;49.978;9.966;2023-04-01T00:51:50;3.08;;;1.40;;
56746;SDS011;42623;49.978;9.966;2023-04-01T00:52:02;3.80;;;1.70;;
56746;SDS011;42623;49.978;9.966;2023-04-01T00:52:14;3.25;;;1.65;;
56746;SDS011;42623;49.978;9.966;2023-04-01T00:52:25;4.20;;;1.35;;
56746;SDS011;42623;49.978;9.966;2023-04-01T00:52:35;4.97;;;1.53;;
56746;SDS011;42623;49.978;9.966;2023-04-01T00:52:45;6.20;;;2.47;;
56746;SDS011;42623;49.978;9.966;2023-04-01T00:52:56;5.43;;;3.10;;
56746;SDS011;42623;49.978;9.966;2023-04-01T00:53:07;4.85;;;2.80;;
56746;SDS011;42623;49.978;9.966;2023-04-01T00:53:18;3.67;;;2.03;;
56746;SDS011;42623;49.978;9.966;2023-04-01T00:53:29;3.50;;;1.90;;
56746;SDS011;42623;49.978;9.966;2023-04-01T00:53:41;5.80;;;2.17;;
56746;SDS011;42623;49.978;9.966;2023-04-01T00:53:53;6.63;;;2.08;;
56746;SDS011;42623;49.978;9.966;2023-04-01T00:54:04;5.00;;;1.90;;
56746;SDS011;42623;49.978;9.966;2023-04-01T00:54:15;3.35;;;1.88;;
56746;SDS011;42623;49.978;9.966;2023-04-01T00:54:27;4.00;;;2.28;;
56746;SDS011;42623;49.978;9.966;2023-04-01T00:54:38;2.95;;;1.73;;
56746;SDS011;42623;49.978;9.966;2023-04-01T00:54:54;2.45;;;1.50;;
56746;SDS011;42623;49.978;9.966;2023-04-01T00:55:05;2.38;;;1.40;;
56746;SDS011;42623;49.978;9.966;2023-04-01T00:55:16;2.50;;;1.35;;
56746;SDS011;42623;49.978;9.966;2023-04-01T00:55:27;3.70;;;1.90;;
56746;SDS011;42623;49.978;9.966;2023-04-01T00:55:39;4.30;;;1.98;;
56746;SDS011;42623;49.978;9.966;2023-04-01T00:55:55;4.43;;;1.95;;
56746;SDS011;42623;49.978;9.966;2023-04-01T00:56:11;3.85;;;1.80;;
56746;SDS011;42623;49.978;9.966;2023-04-01T00:56:30;2.83;;;1.42;;
56746;SDS011;42623;49.978;9.966;2023-04-01T00:56:43;3.42;;;1.88;;
56746;SDS011;42623;49.978;9.966;2023-04-01T00:57:15;3.22;;;1.65;;
56746;SDS011;42623;49.978;9.966;2023-04-01T00:57:31;2.72;;;1.40;;
56746;SDS011;42623;49.978;9.966;2023-04-01T00:57:42;3.70;;;1.83;;
56746;SDS011;42623;49.978;9.966;2023-04-01T00:57:53;2.65;;;1.40;;
56746;SDS011;42623;49.978;9.966;2023-04-01T00:58:05;2.35;;;1.00;;
56746;SDS011;42623;49.978;9.966;2023-04-01T00:58:17;2.90;;;1.20;;
56746;SDS011;42623;49.978;9.966;2023-04-01T00:58:31;2.40;;;1.20;;
56746;SDS011;42623;49.978;9.966;2023-04-01T00:58:44;2.30;;;1.20;;
56746;SDS011;42623;49.978;9.966;2023-04-01T00:59:37;6.63;;;2.13;;
56746;SDS011;42623;49.978;9.966;2023-04-01T00:59:49;5.78;;;1.83;;
56746;SDS011;42623;49.978;9.966;2023-04-01T01:00:00;8.15;;;1.60;;
56746;SDS011;42623;49.978;9.966;2023-04-01T01:00:11;7.00;;;1.13;;
56746;SDS011;42623;49.978;9.966;2023-04-01T01:00:23;6.72;;;1.13;;
56746;SDS011;42623;49.978;9.966;2023-04-01T01:00:33;2.60;;;1.27;;
56746;SDS011;42623;49.978;9.966;2023-04-01T01:00:45;3.73;;;1.87;;
56746;SDS011;42623;49.978;9.966;2023-04-01T01:00:56;4.57;;;2.08;;
56746;SDS011;42623;49.978;9.966;2023-04-01T01:01:08;4.18;;;1.95;;
56746;SDS011;42623;49.978;9.966;2023-04-01T01:01:19;3.78;;;2.00;;
56746;SDS011;42623;49.978;9.966;2023-04-01T01:01:30;3.80;;;2.13;;
56746;SDS011;42623;49.978;9.966;2023-04-01T01:01:41;3.63;;;1.98;;
56746;SDS011;42623;49.978;9.966;2023-04-01T01:01:51;3.08;;;1.67;;
56746;SDS011;42623;49.978;9.966;2023-04-01T01:02:02;2.57;;;1.33;;
56746;SDS011;42623;49.978;9.966;2023-04-01T01:02:12;5.45;;;1.58;;
56746;SDS011;42623;49.978;9.966;2023-04-01T01:02:23;5.93;;;1.60;;
56746;SDS011;42623;49.978;9.966;2023-04-01T01:02:33;5.43;;;1.50;;
56746;SDS011;42623;49.978;9.966;2023-04-01T01:02:45;2.00;;;1.27;;
56746;SDS011;42623;49.978;9.966;2023-04-01T01:02:55;2.92;;;1.60;;
56746;SDS011;42623;49.978;9.966;2023-04-01T01:03:05;5.33;;;1.83;;
56746;SDS011;42623;49.978;9.966;2023-04-01T01:03:17;4.82;;;1.63;;
56746;SDS011;42623;49.978;9.966;2023-04-01T01:03:27;4.43;;;1.33;;
56746;SDS011;42623;49.978;9.966;2023-04-01T01:03:38;2.55;;;1.08;;
56746;SDS011;42623;49.978;9.966;2023-04-01T01:03:48;4.10;;;1.20;;
56746;SDS011;42623;49.978;9.966;2023-04-01T01:03:58;3.40;;;1.00;;
56746;SDS011;42623;49.978;9.966;2023-04-01T01:04:22;4.05;;;1.10;;
56746;SDS011;42623;49.978;9.966;2023-04-01T01:04:33;4.90;;;1.77;;
56746;SDS011;42623;49.978;9.966;2023-04-01T01:04:44;3.58;;;1.52;;
56746;SDS011;42623;49.978;9.966;2023-04-01T01:04:55;3.10;;;1.37;;
56746;SDS011;42623;49.978;9.966;2023-04-01T01:05:05;3.43;;;1.53;;
56746;SDS011;42623;49.978;9.966;2023-04-01T01:05:15;4.10;;;1.85;;
56746;SDS011;42623;49.978;9.966;2023-04-01T01:05:36;3.77;;;1.77;;
56746;SDS011;42623;49.978;9.966;2023-04-01T01:06:17;4.15;;;1.80;;
56746;SDS011;42623;49.978;9.966;2023-04-01T01:06:55;3.43;;;1.80;;
56746;SDS011;42623;49.978;9.966;2023-04-01T01:07:44;1.42;;;1.00;;
56746;SDS011;42623;49.978;9.966;2023-04-01T01:08:13;3.80;;;1.58;;
56746;SDS011;42623;49.978;9.966;2023-04-01T01:08:32;3.67;;;1.48;;
56746;SDS011;42623;49.978;9.966;2023-04-01T01:08:52;3.67;;;1.75;;
56746;SDS011;42623;49.978;9.966;2023-04-01T01:10:12;6.47;;;4.22;;
56746;SDS011;42623;49.978;9.966;2023-04-01T01:10:33;4.60;;;2.15;;
56746;SDS011;42623;49.978;9.966;2023-04-01T01:10:45;3.55;;;1.30;;
56746;SDS011;42623;49.978;9.966;2023-04-01T01:10:58;2.72;;;1.08;;